Time;durP1;ratioP1;P1;durP2;ratioP2;P2;SDS_P1;SDS_P2;PMS_P1;PMS_P2;Temp;Humidity;BMP_temperature;BMP_pressure;BME280_temperature;BME280_humidity;BME280_pressure;Samples;Min_cycle;Max_cycle;Signal;HPM_P1;HPM_P2
2022/04/28 00:00:59;;;;;;;8.57;6.22;;;;;;;5.96;100.00;98432.72;4985256;28;20077;-75
2022/04/28 00:03:29;;;;;;;7.15;5.97;;;;;;;5.96;100.00;98433.56;4988120;28;20105;-75
2022/04/28 00:05:59;;;;;;;6.97;5.78;;;;;;;6.04;100.00;98424.03;4998650;28;20049;-75
2022/04/28 00:09:12;;;;;;;8.23;5.82;;;;;;;5.88;100.00;98425.00;5004987;28;20471;-75
2022/04/28 00:12:23;;;;;;;7.63;5.75;;;;;;;5.76;100.00;98428.56;5001134;28;20196;-75
2022/04/28 00:14:51;;;;;;;7.65;5.78;;;;;;;5.78;100.00;98434.56;4998941;28;20529;-76
2022/04/28 00:17:18;;;;;;;8.70;6.75;;;;;;;5.65;100.00;98432.97;5000099;28;20064;-75
2022/04/28 00:19:45;;;;;;;9.30;7.32;;;;;;;5.70;100.00;98436.34;5004534;28;20058;-74
2022/04/28 00:22:13;;;;;;;8.13;6.93;;;;;;;5.61;100.00;98431.28;5003698;28;20133;-74
2022/04/28 00:24:41;;;;;;;9.95;7.82;;;;;;;5.58;100.00;98442.47;4985698;28;20045;-75
2022/04/28 00:27:08;;;;;;;14.30;8.00;;;;;;;5.67;100.00;98441.53;5001317;28;20133;-74
2022/04/28 00:29:36;;;;;;;12.02;8.65;;;;;;;5.47;100.00;98436.53;5003716;28;20112;-74
2022/04/28 00:32:03;;;;;;;11.50;7.25;;;;;;;5.50;100.00;98441.69;5002138;28;20620;-74
2022/04/28 00:34:31;;;;;;;10.75;7.30;;;;;;;5.51;100.00;98437.38;5001381;28;20125;-73
2022/04/28 00:36:59;;;;;;;12.15;8.02;;;;;;;5.39;100.00;98439.19;5000397;28;20065;-76
2022/04/28 00:39:26;;;;;;;11.18;7.75;;;;;;;5.31;100.00;98437.53;5004736;28;20132;-76
2022/04/28 00:41:53;;;;;;;10.18;7.47;;;;;;;5.51;100.00;98437.38;5005135;28;20099;-76
2022/04/28 00:44:21;;;;;;;9.45;6.43;;;;;;;5.42;100.00;98438.31;5002325;28;20130;-76
2022/04/28 00:46:48;;;;;;;10.63;7.80;;;;;;;5.44;100.00;98436.59;5001013;28;20511;-76
2022/04/28 00:52:02;;;;;;;10.00;6.75;;;;;;;5.49;100.00;98436.53;5003698;28;20218;-76
2022/04/28 00:54:34;;;;;;;9.07;6.80;;;;;;;5.24;100.00;98429.88;5002066;28;20161;-76
2022/04/28 00:57:03;;;;;;;12.68;9.30;;;;;;;5.26;100.00;98434.16;5001284;28;20065;-75
2022/04/28 00:59:30;;;;;;;11.35;8.10;;;;;;;5.17;100.00;98435.91;5000595;28;20129;-76
2022/04/28 01:01:58;;;;;;;9.95;7.00;;;;;;;5.22;100.00;98439.34;4984798;28;20136;-76
2022/04/28 01:04:25;;;;;;;9.63;6.68;;;;;;;5.26;100.00;98440.16;4999792;28;20476;-76
2022/04/28 01:06:53;;;;;;;7.72;6.65;;;;;;;5.14;100.00;98442.81;4999578;28;20057;-76
2022/04/28 01:09:20;;;;;;;7.13;5.43;;;;;;;5.21;100.00;98434.19;4985111;28;20103;-76
2022/04/28 01:12:30;;;;;;;7.18;5.38;;;;;;;5.08;100.00;98437.72;5003668;28;20148;-75
2022/04/28 01:15:44;;;;;;;12.23;7.65;;;;;;;5.15;100.00;98442.78;4998889;28;20052;-76
2022/04/28 01:18:53;;;;;;;8.52;6.53;;;;;;;5.15;100.00;98439.38;4981279;28;20136;-76
2022/04/28 01:22:03;;;;;;;10.52;6.32;;;;;;;5.00;100.00;98445.50;5000627;28;20058;-76
2022/04/28 01:24:33;;;;;;;8.98;6.57;;;;;;;4.88;100.00;98446.44;5001487;28;20080;-76
2022/04/28 01:27:05;;;;;;;9.70;7.03;;;;;;;4.81;100.00;98449.88;5001057;28;20128;-76
2022/04/28 01:29:33;;;;;;;10.40;7.68;;;;;;;4.86;100.00;98448.16;5002608;28;20073;-76
2022/04/28 01:32:01;;;;;;;11.05;8.02;;;;;;;4.92;100.00;98447.25;5001689;28;20050;-76
2022/04/28 01:34:29;;;;;;;12.85;8.07;;;;;;;4.82;100.00;98452.44;4984777;28;20069;-76
2022/04/28 01:36:57;;;;;;;9.80;7.68;;;;;;;4.78;100.00;98452.47;4983976;28;20063;-74
2022/04/28 01:39:25;;;;;;;8.38;7.10;;;;;;;4.65;100.00;98455.97;5001329;28;20053;-74
2022/04/28 01:41:52;;;;;;;10.35;7.05;;;;;;;4.64;100.00;98449.97;4996879;28;20132;-74
2022/04/28 01:44:19;;;;;;;10.43;7.30;;;;;;;4.54;100.00;98456.03;5001860;28;20075;-75
2022/04/28 01:46:47;;;;;;;12.73;7.95;;;;;;;4.55;100.00;98463.72;5001691;28;20530;-75
2022/04/28 01:49:14;;;;;;;10.88;7.65;;;;;;;4.56;100.00;98464.56;5003471;28;20077;-74
2022/04/28 01:57:13;;;;;;;8.48;6.55;;;;;;;4.57;100.00;98466.28;5006121;28;20220;-76
2022/04/28 01:59:41;;;;;;;8.70;6.63;;;;;;;4.63;100.00;98471.41;5003932;28;20073;-76
2022/04/28 02:02:08;;;;;;;7.35;6.15;;;;;;;4.74;100.00;98471.34;4987695;28;20115;-75
2022/04/28 02:04:36;;;;;;;7.13;6.00;;;;;;;4.88;100.00;98468.69;5008172;28;20100;-75
2022/04/28 02:07:06;;;;;;;9.10;6.20;;;;;;;4.95;100.00;98476.41;5005531;28;20054;-75
2022/04/28 02:09:34;;;;;;;8.30;6.57;;;;;;;4.94;100.00;98469.53;5006515;28;20076;-75
2022/04/28 02:12:01;;;;;;;7.47;5.88;;;;;;;4.98;100.00;98471.22;4999887;28;20141;-75
2022/04/28 02:14:28;;;;;;;7.18;5.65;;;;;;;5.03;100.00;98482.34;5004930;28;20137;-75
2022/04/28 02:16:56;;;;;;;7.00;5.38;;;;;;;4.91;100.00;98472.13;5007825;28;20116;-75
2022/04/28 02:19:24;;;;;;;8.00;5.55;;;;;;;4.81;100.00;98473.91;5003719;28;20125;-74
2022/04/28 02:21:51;;;;;;;9.05;6.28;;;;;;;4.63;100.00;98471.41;4987887;28;20049;-75
2022/04/28 02:24:19;;;;;;;8.13;5.97;;;;;;;4.52;100.00;98470.59;5005207;28;20057;-75
2022/04/28 02:26:46;;;;;;;7.95;6.53;;;;;;;4.58;100.00;98475.69;5003787;28;20056;-75
2022/04/28 02:29:13;;;;;;;8.93;6.38;;;;;;;4.74;100.00;98473.91;5005127;28;20053;-76
2022/04/28 02:31:41;;;;;;;8.57;5.80;;;;;;;4.80;100.00;98484.19;5004549;28;20054;-76
2022/04/28 02:34:08;;;;;;;8.02;6.85;;;;;;;4.86;100.00;98486.72;5003146;28;20408;-75
2022/04/28 02:36:36;;;;;;;10.18;7.13;;;;;;;4.91;100.00;98484.13;5003264;28;20068;-75
2022/04/28 02:39:04;;;;;;;7.63;5.95;;;;;;;4.90;100.00;98487.56;5004556;28;20129;-75
2022/04/28 02:41:31;;;;;;;8.80;6.43;;;;;;;4.90;100.00;98487.56;5003476;28;20140;-76
2022/04/28 02:43:58;;;;;;;6.72;5.63;;;;;;;4.86;100.00;98489.31;5005500;28;20095;-75
2022/04/28 02:46:27;;;;;;;8.32;6.80;;;;;;;4.86;100.00;98488.44;5004209;28;20069;-76
2022/04/28 02:48:54;;;;;;;9.93;6.90;;;;;;;4.84;100.00;98487.59;5005909;28;20045;-74
2022/04/28 02:51:22;;;;;;;11.27;6.93;;;;;;;4.84;100.00;98488.47;5005989;28;20085;-74
2022/04/28 02:53:49;;;;;;;10.02;6.97;;;;;;;4.78;100.00;98486.75;5006531;28;20128;-74
2022/04/28 02:56:16;;;;;;;11.52;7.57;;;;;;;4.77;100.00;98485.06;5005221;28;20085;-74
2022/04/28 02:58:45;;;;;;;11.80;7.22;;;;;;;4.83;100.00;98486.72;4986958;28;20129;-73
2022/04/28 03:01:13;;;;;;;9.48;6.88;;;;;;;4.84;100.00;98485.88;5001608;28;20187;-74
2022/04/28 03:03:41;;;;;;;11.93;7.75;;;;;;;4.84;100.00;98488.47;5002006;28;20077;-74
2022/04/28 03:11:43;;;;;;;9.23;7.43;;;;;;;4.82;100.00;98500.47;5009062;28;20062;-76
2022/04/28 03:14:12;;;;;;;11.27;7.80;;;;;;;4.82;100.00;98505.63;5005992;28;20077;-75
2022/04/28 03:16:40;;;;;;;9.65;7.32;;;;;;;4.85;100.00;98504.75;5001423;28;20085;-76
2022/04/28 03:19:09;;;;;;;12.20;7.63;;;;;;;4.85;100.00;98504.75;4987970;28;20054;-78
2022/04/28 03:21:37;;;;;;;10.27;7.97;;;;;;;4.74;100.00;98502.22;5003583;28;20047;-74
2022/04/28 03:24:05;;;;;;;8.75;7.63;;;;;;;4.74;100.00;98504.78;5006929;28;20477;-74
2022/04/28 03:26:33;;;;;;;10.30;8.70;;;;;;;4.74;100.00;98497.91;5001497;28;20050;-75
2022/04/28 03:29:00;;;;;;;11.68;8.82;;;;;;;4.77;100.00;98503.06;5001462;28;20094;-74
2022/04/28 03:31:28;;;;;;;9.75;8.30;;;;;;;4.82;100.00;98508.19;5002235;28;20085;-76
2022/04/28 03:33:55;;;;;;;12.38;9.93;;;;;;;4.79;100.00;98505.63;5006424;28;20047;-76
2022/04/28 03:39:08;;;;;;;9.13;7.88;;;;;;;4.77;100.00;98508.22;5005091;28;20149;-75
2022/04/28 03:41:36;;;;;;;11.95;8.73;;;;;;;4.79;100.00;98506.47;5001120;28;20137;-76
2022/04/28 03:44:04;;;;;;;12.85;8.90;;;;;;;4.77;100.00;98510.78;5010228;28;20049;-76
2022/04/28 03:46:31;;;;;;;11.98;9.13;;;;;;;4.72;100.00;98514.22;5002527;28;20531;-76
2022/04/28 03:48:58;;;;;;;13.85;9.60;;;;;;;4.73;100.00;98516.78;4999947;28;21050;-74
2022/04/28 03:51:26;;;;;;;10.35;8.77;;;;;;;4.63;100.00;98514.25;4999999;28;20053;-73
2022/04/28 03:53:53;;;;;;;15.45;9.82;;;;;;;4.64;100.00;98513.41;5007241;28;20137;-76
2022/04/28 03:56:20;;;;;;;11.32;8.27;;;;;;;4.67;100.00;98521.94;5000782;28;20054;-76
2022/04/28 03:58:47;;;;;;;11.20;8.15;;;;;;;4.69;100.00;98522.81;5005749;28;20096;-76
2022/04/28 04:01:15;;;;;;;10.07;8.35;;;;;;;4.58;100.00;98521.97;5005322;28;20050;-76
2022/04/28 04:03:42;;;;;;;9.88;7.43;;;;;;;4.59;100.00;98518.56;5007374;28;20907;-73
2022/04/28 04:06:10;;;;;;;11.07;8.30;;;;;;;4.34;100.00;98512.66;5002809;28;20050;-75
2022/04/28 04:08:38;;;;;;;11.60;7.57;;;;;;;4.18;100.00;98516.97;5002926;28;20232;-73
2022/04/28 04:11:05;;;;;;;7.97;6.95;;;;;;;4.32;100.00;98522.06;5001076;28;20129;-74
2022/04/28 04:13:32;;;;;;;8.68;6.30;;;;;;;4.30;100.00;98528.94;5003369;28;20318;-74
2022/04/28 04:16:00;;;;;;;10.43;7.93;;;;;;;4.12;100.00;98522.97;5000722;28;20128;-74
2022/04/28 04:18:27;;;;;;;8.65;6.78;;;;;;;4.18;100.00;98522.94;5001200;28;20082;-75
2022/04/28 04:20:55;;;;;;;12.20;9.88;;;;;;;4.14;100.00;98528.09;4985252;28;20133;-75
2022/04/28 04:23:22;;;;;;;11.20;8.80;;;;;;;4.20;100.00;98533.25;5001524;28;20056;-74
2022/04/28 04:25:50;;;;;;;11.77;9.07;;;;;;;4.15;100.00;98534.94;4986664;28;20353;-74
2022/04/28 04:28:17;;;;;;;11.43;9.23;;;;;;;4.16;100.00;98534.94;5003190;28;20224;-75
2022/04/28 04:33:31;;;;;;;13.30;9.93;;;;;;;4.21;100.00;98542.66;4986323;28;20070;-75
2022/04/28 04:35:58;;;;;;;13.68;10.38;;;;;;;4.31;100.00;98549.50;5002472;28;20117;-75
2022/04/28 04:38:25;;;;;;;12.18;10.48;;;;;;;4.36;100.00;98550.34;5001638;28;20133;-74
2022/04/28 04:40:52;;;;;;;11.15;8.90;;;;;;;4.45;100.00;98554.59;4999921;28;20132;-74
2022/04/28 04:43:20;;;;;;;14.10;9.00;;;;;;;4.43;100.00;98555.47;5000714;28;20064;-74
2022/04/28 04:45:48;;;;;;;14.02;9.38;;;;;;;4.40;100.00;98564.91;4987884;28;20133;-75
2022/04/28 04:48:15;;;;;;;13.20;9.68;;;;;;;4.42;100.00;98567.44;5002601;28;20488;-74
2022/04/28 04:50:42;;;;;;;12.45;10.60;;;;;;;4.53;100.00;98562.28;5003507;28;20056;-75
2022/04/28 04:53:10;;;;;;;11.98;9.60;;;;;;;4.61;100.00;98571.69;4989010;28;20116;-74
2022/04/28 04:55:37;;;;;;;12.43;10.63;;;;;;;4.58;100.00;98569.16;4999427;28;20127;-74
2022/04/28 04:58:06;;;;;;;12.00;9.80;;;;;;;4.55;100.00;98565.72;4998877;28;20050;-74
2022/04/28 05:00:33;;;;;;;11.45;9.20;;;;;;;4.63;100.00;98568.25;5001806;28;20160;-76
2022/04/28 05:03:01;;;;;;;14.13;11.13;;;;;;;4.66;100.00;98558.81;5004200;28;20076;-74
2022/04/28 05:05:28;;;;;;;14.75;11.63;;;;;;;4.70;100.00;98564.78;5005468;28;20136;-73
2022/04/28 05:07:57;;;;;;;13.35;11.68;;;;;;;4.64;100.00;98567.41;5004162;28;20148;-75
2022/04/28 05:10:24;;;;;;;13.73;10.57;;;;;;;4.74;100.00;98562.22;5004757;28;20077;-74
2022/04/28 05:12:52;;;;;;;13.27;10.70;;;;;;;4.79;100.00;98572.50;4995453;28;20069;-75
2022/04/28 05:15:19;;;;;;;14.18;10.43;;;;;;;4.92;100.00;98581.03;5000765;28;20081;-75
2022/04/28 05:17:46;;;;;;;13.43;10.70;;;;;;;5.02;100.00;98578.41;4999785;28;20575;-75
2022/04/28 05:20:13;;;;;;;13.75;11.35;;;;;;;5.00;100.00;98576.72;5003085;28;20512;-75
2022/04/28 05:22:41;;;;;;;13.05;10.20;;;;;;;4.98;100.00;98578.44;5004293;28;20152;-76
2022/04/28 05:25:08;;;;;;;14.00;11.45;;;;;;;5.01;100.00;98579.25;4998295;28;20088;-75
2022/04/28 05:27:36;;;;;;;12.00;10.60;;;;;;;5.15;100.00;98589.50;4995575;28;20081;-75
2022/04/28 05:30:05;;;;;;;13.63;9.57;;;;;;;5.36;100.00;98590.25;4999662;28;20042;-75
2022/04/28 05:32:32;;;;;;;10.63;8.95;;;;;;;5.42;100.00;98591.06;4987654;28;20085;-75
2022/04/28 05:35:00;;;;;;;11.52;8.80;;;;;;;5.68;100.00;98599.50;5004228;28;20060;-75
2022/04/28 05:37:27;;;;;;;12.43;9.73;;;;;;;6.02;100.00;98593.28;4991542;28;20664;-75
2022/04/28 05:39:54;;;;;;;12.95;9.75;;;;;;;6.15;100.00;98591.44;4988138;28;20137;-75
2022/04/28 05:45:41;;;;;;;12.30;9.32;;;;;;;6.37;100.00;98586.97;4980136;28;20082;-75
2022/04/28 05:47:58;;;;;;;10.45;8.05;;;;;;;6.91;100.00;98583.78;4998634;28;20050;-75
2022/04/28 05:50:33;;;;;;;11.82;8.95;;;;;;;7.07;100.00;98587.03;5002268;28;20054;-75
2022/04/28 05:53:45;;;;;;;12.73;8.98;;;;;;;7.36;100.00;98581.50;5000451;28;20495;-75
2022/04/28 05:56:56;;;;;;;11.32;8.13;;;;;;;7.55;100.00;98576.97;4993278;28;20080;-75
2022/04/28 06:00:07;;;;;;;10.45;8.32;;;;;;;7.76;100.00;98578.38;4998830;28;20054;-75
2022/04/28 06:03:19;;;;;;;8.82;7.40;;;;;;;7.94;100.00;98574.66;4999670;28;20156;-75
2022/04/28 06:05:49;;;;;;;11.73;8.25;;;;;;;7.97;100.00;98578.00;5001475;28;20060;-75
2022/04/28 06:08:19;;;;;;;9.10;7.50;;;;;;;8.15;100.00;98570.84;5001412;28;20840;-75
2022/04/28 06:10:47;;;;;;;12.95;7.40;;;;;;;8.37;100.00;98579.94;5001368;28;20089;-75
2022/04/28 06:13:14;;;;;;;12.18;8.27;;;;;;;8.56;100.00;98570.13;4998438;28;20049;-74
2022/04/28 06:15:42;;;;;;;11.20;6.90;;;;;;;8.85;100.00;98573.91;4997960;28;20176;-75
2022/04/28 06:18:09;;;;;;;8.07;6.13;;;;;;;9.00;100.00;98572.75;4982718;28;20490;-75
2022/04/28 06:20:36;;;;;;;11.90;6.32;;;;;;;9.20;100.00;98568.00;5003134;28;20145;-74
2022/04/28 06:23:04;;;;;;;10.50;6.45;;;;;;;9.37;100.00;98572.84;4999012;28;20133;-74
2022/04/28 06:25:32;;;;;;;10.25;6.22;;;;;;;9.52;100.00;98563.84;4999972;28;20046;-75
2022/04/28 06:27:59;;;;;;;8.52;6.15;;;;;;;9.65;100.00;98569.63;4998544;28;20133;-74
2022/04/28 06:30:27;;;;;;;9.20;5.97;;;;;;;9.77;100.00;98571.91;5001801;28;20058;-75
2022/04/28 06:32:55;;;;;;;10.20;6.28;;;;;;;9.93;100.00;98561.19;4994753;28;20085;-75
2022/04/28 06:35:22;;;;;;;11.80;6.05;;;;;;;10.02;100.00;98567.00;4983120;28;20053;-75
2022/04/28 06:37:50;;;;;;;8.73;6.38;;;;;;;10.09;100.00;98564.25;4998147;28;20073;-75
2022/04/28 06:40:18;;;;;;;9.52;6.18;;;;;;;10.20;100.00;98568.28;4979945;28;20488;-75
2022/04/28 06:42:51;;;;;;;9.32;6.78;;;;;;;10.39;100.00;98567.84;4997704;28;20076;-74
2022/04/28 06:45:20;;;;;;;8.30;5.72;;;;;;;10.42;100.00;98567.75;4999659;28;20200;-75
2022/04/28 06:48:33;;;;;;;8.93;6.47;;;;;;;10.63;100.00;98574.16;5003359;28;20141;-74
2022/04/28 06:51:49;;;;;;;7.50;5.53;;;;;;;10.77;100.00;98566.84;5005380;28;20046;-74
2022/04/28 06:55:02;;;;;;;8.77;5.05;;;;;;;10.96;100.00;98571.50;5004745;28;20439;-73
2022/04/28 06:58:16;;;;;;;9.55;5.05;;;;;;;11.09;100.00;98575.47;5005284;28;20046;-74
2022/04/28 07:01:26;;;;;;;11.90;5.25;;;;;;;11.08;100.00;98571.16;5004156;28;20447;-74
2022/04/28 07:04:45;;;;;;;8.13;5.60;;;;;;;11.25;100.00;98576.72;4998916;28;20137;-74
2022/04/28 07:07:54;;;;;;;8.68;5.32;;;;;;;11.32;100.00;98568.75;5002738;28;20054;-74
2022/04/28 07:11:03;;;;;;;6.72;4.50;;;;;;;11.48;100.00;98570.84;5003841;28;20132;-74
2022/04/28 07:13:35;;;;;;;9.55;4.80;;;;;;;11.60;100.00;98580.00;5000384;28;20212;-74
2022/04/28 07:16:08;;;;;;;10.20;6.20;;;;;;;11.72;100.00;98577.03;5001492;28;20088;-74
2022/04/28 07:18:42;;;;;;;;;;;;;;;11.86;100.00;98571.41;5003723;28;20388;-74
2022/04/28 07:21:16;;;;;;;7.22;4.57;;;;;;;11.90;100.00;98574.78;5000688;28;20004;-73
2022/04/28 07:23:59;;;;;;;7.85;5.32;;;;;;;12.00;100.00;98572.75;4997099;28;20115;-74
2022/04/28 07:29:25;;;;;;;9.88;5.10;;;;;;;12.20;100.00;98574.66;4981010;28;20093;-74
2022/04/28 07:32:34;;;;;;;8.63;5.10;;;;;;;12.28;100.00;98581.31;4984655;28;20134;-74
2022/04/28 07:35:45;;;;;;;7.97;5.22;;;;;;;12.12;100.00;98583.59;5009401;28;20078;-74
2022/04/28 07:38:56;;;;;;;7.40;4.95;;;;;;;12.27;100.00;98579.66;4983414;28;20054;-73
2022/04/28 07:42:06;;;;;;;7.43;4.75;;;;;;;12.30;100.00;98578.69;4972486;28;20049;-74
2022/04/28 07:45:17;;;;;;;9.40;5.05;;;;;;;12.59;100.00;98580.31;4983351;28;20054;-74
2022/04/28 07:48:28;;;;;;;7.85;5.22;;;;;;;12.48;100.00;98580.66;4984445;28;20536;-73
2022/04/28 07:51:39;;;;;;;7.95;4.88;;;;;;;12.63;100.00;98576.66;4981699;28;20091;-75
2022/04/28 07:54:50;;;;;;;6.32;4.38;;;;;;;12.53;100.00;98583.09;4977703;28;20112;-74
2022/04/28 07:58:02;;;;;;;8.35;4.32;;;;;;;12.98;100.00;98590.22;4978112;28;20073;-74
2022/04/28 08:00:34;;;;;;;7.05;4.00;;;;;;;12.81;100.00;98579.53;4984512;28;20124;-76
2022/04/28 08:03:02;;;;;;;7.82;3.90;;;;;;;13.03;100.00;98592.66;4981836;28;20066;-73
2022/04/28 08:05:29;;;;;;;6.93;4.03;;;;;;;13.24;100.00;98586.63;4984716;28;20054;-76
2022/04/28 08:07:57;;;;;;;7.35;4.38;;;;;;;13.08;100.00;98586.34;4988662;28;20134;-73
2022/04/28 08:10:24;;;;;;;6.80;3.78;;;;;;;13.46;100.00;98585.88;4980505;28;20086;-74
2022/04/28 08:12:52;;;;;;;5.35;3.33;;;;;;;13.52;100.00;98594.28;4977346;28;20527;-76
2022/04/28 08:15:19;;;;;;;7.25;3.42;;;;;;;13.73;100.00;98587.41;4979356;28;20483;-73
2022/04/28 08:17:47;;;;;;;5.40;3.35;;;;;;;13.70;100.00;98584.06;4979059;28;20520;-75
2022/04/28 08:20:14;;;;;;;7.97;3.28;;;;;;;13.69;100.00;98579.78;4981896;28;20054;-75
2022/04/28 08:22:41;;;;;;;6.40;3.15;;;;;;;13.77;100.00;98591.59;5014944;28;20101;-76
2022/04/28 08:25:09;;;;;;;6.25;3.25;;;;;;;14.07;100.00;98586.06;4988241;28;20145;-76
2022/04/28 08:27:38;;;;;;;6.22;2.90;;;;;;;14.05;100.00;98577.44;4976293;28;20153;-73
2022/04/28 08:30:05;;;;;;;4.47;3.00;;;;;;;14.42;100.00;98575.94;4985009;28;20089;-75
2022/04/28 08:33:10;;;;;;;5.80;2.70;;;;;;;14.90;100.00;98585.22;4976037;28;20613;-76
2022/04/28 08:35:41;;;;;;;6.97;3.85;;;;;;;14.95;100.00;98583.22;4980488;28;20050;-76
2022/04/28 08:38:32;;;;;;;5.03;3.10;;;;;;;15.44;100.00;98588.00;4982242;28;20090;-75
2022/04/28 08:41:45;;;;;;;4.70;2.67;;;;;;;15.62;100.00;98586.28;4984837;28;20054;-75
2022/04/28 08:44:26;;;;;;;4.50;1.88;;;;;;;16.39;100.00;98580.84;4988131;28;20130;-75
2022/04/28 08:46:54;;;;;;;4.05;1.98;;;17.10;99.90;;;16.55;100.00;98586.16;4976767;28;20050;-75
2022/04/28 08:49:36;;;;;;;5.45;2.40;;;;;;;16.70;100.00;98581.91;4979610;28;20125;-76
2022/04/28 08:52:11;;;;;;;3.50;2.33;;;;;;;17.92;100.00;98577.09;4980686;28;20141;-76
2022/04/28 08:54:42;;;;;;;3.50;2.10;;;;;;;17.65;100.00;98583.88;4981457;28;20313;-76
2022/04/28 08:57:11;;;;;;;5.13;2.53;;;;;;;17.65;100.00;98586.50;4984507;28;20100;-73
2022/04/28 08:59:39;;;;;;;3.97;2.38;;;;;;;18.05;100.00;98579.06;4963995;28;20050;-76
2022/04/28 09:02:07;;;;;;;5.78;2.10;;;;;;;19.02;100.00;98587.34;4982036;28;20133;-76
2022/04/28 09:04:35;;;;;;;3.72;2.10;;;15.00;93.20;;;18.86;100.00;98590.09;4981111;28;20474;-72
2022/04/28 09:07:07;;;;;;;2.97;1.60;;;19.10;92.50;;;19.87;100.00;98580.34;4963624;28;20468;-73
2022/04/28 09:09:34;;;;;;;3.13;2.10;;;19.40;92.10;;;20.02;100.00;98584.59;4983605;28;20042;-75
2022/04/28 09:12:04;;;;;;;2.92;1.55;;;19.70;90.60;;;19.97;95.29;98589.31;4979564;28;20050;-74
2022/04/28 09:14:32;;;;;;;3.88;1.60;;;19.80;84.30;;;19.74;98.43;98582.06;4981785;28;20100;-74
2022/04/28 09:17:03;;;;;;;3.17;1.45;;;19.80;85.50;;;18.78;94.64;98585.28;4980301;28;20400;-75
2022/04/28 09:19:39;;;;;;;3.42;1.88;;;19.60;82.30;;;19.02;91.72;98582.97;4978334;28;20517;-74
2022/04/28 09:22:10;;;;;;;5.03;1.70;;;19.40;78.80;;;20.04;93.14;98581.84;4973529;28;20081;-75
2022/04/28 09:24:40;;;;;;;3.10;1.83;;;19.30;81.10;;;19.06;85.85;98588.03;4976696;28;20042;-75
2022/04/28 09:27:08;;;;;;;5.15;1.70;;;19.10;75.60;;;19.53;86.70;98584.25;4987916;28;20069;-75
2022/04/28 09:29:39;;;;;;;2.45;1.30;;;19.40;76.20;;;20.17;85.76;98585.38;4985704;28;20493;-75
2022/04/28 09:32:12;;;;;;;3.60;1.70;;;19.70;76.20;;;20.70;82.95;98577.50;4990322;28;20053;-76
2022/04/28 09:35:09;;;;;;;2.80;1.13;;;19.90;75.30;;;20.37;80.72;98583.25;5013083;28;20076;-75
2022/04/28 09:37:40;;;;;;;2.63;1.35;;;20.30;74.80;;;20.38;83.26;98580.47;4998193;28;20046;-75
2022/04/28 09:42:53;;;;;;;4.30;1.50;;;20.20;74.90;;;21.04;80.00;98586.56;4987371;28;20125;-75
2022/04/28 09:45:23;;;;;;;2.33;1.15;;;20.40;73.20;;;20.93;72.66;98580.34;5001246;28;20091;-75
2022/04/28 09:48:01;;;;;;;2.67;1.33;;;20.50;70.30;;;21.06;78.77;98571.47;5000833;28;20046;-74
2022/04/28 09:50:31;;;;;;;2.92;1.58;;;20.70;73.10;;;21.28;70.05;98586.66;5014085;28;20046;-74
2022/04/28 09:53:06;;;;;;;2.33;1.27;;;20.50;70.30;;;21.91;68.01;98570.75;4999293;28;20049;-74
2022/04/28 09:55:34;;;;;;;2.72;1.48;;;20.70;69.80;;;21.62;63.21;98583.44;4985739;28;20496;-75
2022/04/28 09:58:09;;;;;;;4.43;1.30;;;20.90;67.40;;;22.06;70.73;98563.53;5000909;28;20077;-74
2022/04/28 10:00:36;;;;;;;3.15;1.00;;;21.10;69.70;;;21.76;70.13;98578.03;5002345;28;20049;-74
2022/04/28 10:03:03;;;;;;;2.10;1.17;;;21.20;69.60;;;22.06;61.71;98582.88;5000701;28;20054;-74
2022/04/28 10:05:32;;;;;;;3.58;1.13;;;21.50;67.60;;;21.50;61.67;98580.72;5000125;28;20109;-74
2022/04/28 10:07:59;;;;;;;4.40;1.30;;;21.30;66.20;;;21.81;63.10;98577.69;4983520;28;20437;-74
2022/04/28 10:10:26;;;;;;;2.13;1.20;;;21.50;67.10;;;22.70;64.03;98569.28;4998699;28;20050;-74
2022/04/28 10:12:55;;;;;;;3.15;1.27;;;21.80;66.90;;;22.17;53.69;98574.16;4999064;28;20053;-74
2022/04/28 10:15:24;;;;;;;1.98;1.00;;;21.70;63.40;;;22.33;52.47;98571.22;4985761;28;20054;-75
2022/04/28 10:18:04;;;;;;;3.20;1.10;;;21.70;63.10;;;22.41;54.19;98566.19;4984888;28;20062;-74
2022/04/28 10:20:35;;;;;;;3.33;1.05;;;21.70;63.70;;;21.10;59.22;98582.69;5001469;28;20129;-74
2022/04/28 10:32:22;;;;;;;3.33;1.35;;;21.20;63.90;;;21.55;56.23;98566.34;4984867;28;20133;-74
2022/04/28 10:35:03;;;;;;;2.60;1.42;;;21.50;61.40;;;21.62;53.80;98583.44;5004263;28;20524;-75
2022/04/28 10:37:42;;;;;;;4.82;1.02;;;21.60;62.00;;;21.99;48.34;98565.78;4981305;28;20065;-73
2022/04/28 10:40:16;;;;;;;4.70;1.08;;;21.60;60.70;;;22.65;49.44;98568.78;5004575;28;20058;-72
2022/04/28 10:42:47;;;;;;;2.92;1.20;;;22.00;61.70;;;22.31;46.58;98563.41;5004239;28;20050;-72
2022/04/28 10:45:25;;;;;;;3.73;1.30;;;22.20;59.70;;;23.20;51.58;98566.34;5003991;28;20482;-71
2022/04/28 10:48:33;;;;;;;6.10;1.50;;;22.70;62.50;;;21.94;50.99;98565.28;4995513;28;20526;-72
2022/04/28 10:51:11;;;;;;;2.22;1.00;;;22.10;60.40;;;22.68;49.30;98550.03;5002903;28;20472;-71
2022/04/28 10:54:05;;;;;;;2.75;1.23;;;22.20;60.20;;;22.69;48.69;98564.97;5000902;28;20225;-72
2022/04/28 10:56:44;;;;;;;2.80;0.80;;;22.40;61.10;;;23.48;45.96;98546.44;4985807;28;20053;-72
2022/04/28 10:59:38;;;;;;;2.17;0.82;;;22.70;60.40;;;22.54;53.20;98553.72;5002860;28;20054;-72
2022/04/28 11:02:15;;;;;;;4.70;1.25;;;22.60;61.50;;;22.51;49.59;98561.03;4982362;28;20064;-72
2022/04/28 11:05:01;;;;;;;3.08;1.00;;;22.50;60.30;;;23.60;49.47;98552.56;5000485;28;20103;-71
2022/04/28 11:07:30;;;;;;;5.07;1.65;;;22.90;61.20;;;22.04;50.11;98555.69;5003019;28;20105;-72
2022/04/28 11:10:05;;;;;;;2.40;1.33;;;22.40;59.90;;;22.48;51.52;98550.69;4989939;28;20053;-70
2022/04/28 11:12:35;;;;;;;2.72;0.90;;;22.80;60.90;;;22.89;55.93;98562.56;5005308;28;20217;-71
2022/04/28 11:15:13;;;;;;;2.85;1.10;;;22.90;62.40;;;23.47;44.49;98559.78;5003596;28;20059;-72
2022/04/28 11:17:45;;;;;;;2.20;0.93;;;23.10;58.30;;;23.63;43.73;98554.09;5002123;28;20133;-72
2022/04/28 11:20:15;;;;;;;2.35;1.00;;;23.30;58.60;;;22.37;47.18;98551.50;5001838;28;20054;-72
2022/04/28 11:22:55;;;;;;;2.17;0.82;;;23.60;57.90;;;22.16;41.72;98556.56;5001520;28;20124;-72
2022/04/28 11:25:22;;;;;;;2.58;1.08;;;23.10;56.00;;;22.44;44.10;98555.41;5004050;28;20139;-72
2022/04/28 11:27:51;;;;;;;2.35;1.00;;;22.80;57.50;;;22.54;46.43;98552.88;4998904;28;20525;-72
2022/04/28 11:30:25;;;;;;;4.32;0.90;;;22.80;58.80;;;22.09;46.95;98545.59;5004524;28;20058;-72
2022/04/28 11:32:57;;;;;;;3.13;1.00;;;22.60;58.20;;;23.73;60.35;98547.13;5015429;28;20112;-71
2022/04/28 11:35:35;;;;;;;2.75;1.00;;;23.20;63.40;;;24.43;43.90;98538.66;4983087;28;20475;-73
2022/04/28 11:38:03;;;;;;;3.00;1.20;;;23.60;59.00;;;23.32;43.93;98546.81;5003043;28;20085;-71
2022/04/28 11:40:35;;;;;;;3.15;1.15;;;23.60;57.40;;;23.71;45.30;98555.19;4986564;28;20060;-72
2022/04/28 11:43:04;;;;;;;2.67;1.02;;;23.80;58.80;;;24.28;43.98;98539.94;5000210;28;20082;-72
2022/04/28 11:45:32;;;;;;;3.45;0.75;;;23.90;57.70;;;24.43;46.04;98537.81;4986590;28;20474;-72
2022/04/28 11:48:03;;;;;;;3.35;1.10;;;23.90;58.90;;;23.20;40.26;98536.38;5000045;28;21593;-72
2022/04/28 11:50:32;;;;;;;3.33;0.90;;;23.70;55.30;;;24.07;42.57;98533.78;5000590;28;20104;-72
2022/04/28 11:53:11;;;;;;;2.78;1.00;;;23.90;57.30;;;24.34;40.45;98534.13;4968002;28;20088;-71
2022/04/28 11:55:40;;;;;;;1.98;0.93;;;24.00;56.70;;;24.11;44.69;98538.69;4997816;28;20069;-72
2022/04/28 11:58:13;;;;;;;3.53;0.90;;;24.00;57.70;;;23.52;43.41;98536.44;5014144;28;20054;-72
2022/04/28 12:00:46;;;;;;;3.47;1.15;;;23.70;57.30;;;23.66;44.79;98543.28;5017719;28;20041;-72
2022/04/28 12:03:30;;;;;;;2.03;1.20;;;23.80;57.40;;;23.87;45.59;98524.81;5016284;28;20913;-71
2022/04/28 12:05:57;;;;;;;2.95;1.00;;;23.80;57.90;;;24.53;45.09;98529.94;4998160;28;20116;-71
2022/04/28 12:08:25;;;;;;;2.67;1.10;;;24.10;58.30;;;22.64;48.78;98524.75;4996756;28;20054;-71
2022/04/28 12:19:19;;;;;;;3.17;1.13;;;23.10;57.50;;;22.90;46.29;98512.16;5003255;28;20208;-71
2022/04/28 12:19:21;;;;;;;2.20;1.00;;;22.90;58.00;;;22.17;49.66;98528.31;4998249;28;20062;-70
2022/04/28 12:21:48;;;;;;;4.25;1.80;;;22.80;59.30;;;22.05;55.50;98523.00;5001047;28;20193;-70